createdAt,value
2018-12-31T00:00:02.267Z,17.43
2018-12-31T00:02:29.030Z,17.32
2018-12-31T00:04:55.762Z,17.44
2018-12-31T00:07:22.485Z,17.42
2018-12-31T00:09:49.215Z,17.44
2018-12-31T00:12:15.991Z,17.42
2018-12-31T00:14:42.699Z,17.42
2018-12-31T00:17:09.422Z,17.37
2018-12-31T00:19:36.079Z,17.41
2018-12-31T00:22:02.737Z,17.40
2018-12-31T00:24:29.399Z,17.41
2018-12-31T00:26:56.121Z,17.40
2018-12-31T00:29:22.774Z,17.40
2018-12-31T00:31:49.460Z,17.40
2018-12-31T00:34:16.121Z,17.41
2018-12-31T00:36:42.800Z,17.41
2018-12-31T00:39:09.457Z,17.41
2018-12-31T00:41:36.157Z,17.42
2018-12-31T00:44:02.825Z,17.43
2018-12-31T00:46:29.491Z,17.41
2018-12-31T00:48:56.160Z,17.42
2018-12-31T00:51:22.858Z,17.42
2018-12-31T00:53:49.522Z,17.41
2018-12-31T00:56:16.181Z,17.43
2018-12-31T00:58:42.840Z,17.44
2018-12-31T01:01:09.503Z,17.42
2018-12-31T01:03:36.216Z,17.41
2018-12-31T01:06:02.882Z,17.38
2018-12-31T01:08:29.598Z,17.42
2018-12-31T01:10:56.259Z,17.41
2018-12-31T01:13:22.976Z,17.42
2018-12-31T01:15:49.641Z,17.48
2018-12-31T01:18:16.284Z,17.44
2018-12-31T01:20:42.946Z,17.48
2018-12-31T01:23:09.597Z,17.57
2018-12-31T01:25:36.258Z,17.68
2018-12-31T01:28:02.968Z,17.59
2018-12-31T01:30:29.623Z,17.54
2018-12-31T01:32:56.291Z,17.55
2018-12-31T01:35:22.978Z,17.51
2018-12-31T01:37:49.612Z,17.48
2018-12-31T01:40:16.334Z,17.47
2018-12-31T01:42:42.992Z,17.46
2018-12-31T01:45:09.709Z,17.45
2018-12-31T01:47:36.359Z,17.46
2018-12-31T01:50:03.082Z,17.43
2018-12-31T01:52:29.785Z,17.43
2018-12-31T01:54:56.451Z,17.44
2018-12-31T01:57:24.511Z,17.46
2018-12-31T01:59:49.865Z,17.44
2018-12-31T02:02:16.562Z,17.46
2018-12-31T02:04:43.245Z,17.49
2018-12-31T02:07:09.958Z,17.45
2018-12-31T02:09:36.607Z,17.46
2018-12-31T02:12:03.333Z,17.48
2018-12-31T02:14:30.005Z,17.47
2018-12-31T02:16:56.710Z,17.48
2018-12-31T02:19:23.362Z,17.47
2018-12-31T02:21:50.068Z,17.52
2018-12-31T02:24:16.712Z,17.50
2018-12-31T02:26:43.431Z,17.51
2018-12-31T02:29:10.089Z,17.51
2018-12-31T02:31:36.781Z,17.53
2018-12-31T02:34:03.513Z,17.48
2018-12-31T02:36:30.188Z,17.48
2018-12-31T02:38:56.835Z,17.47
2018-12-31T02:41:23.510Z,17.51
2018-12-31T02:43:50.220Z,17.48
2018-12-31T02:46:16.904Z,17.50
2018-12-31T02:48:43.550Z,17.48
2018-12-31T02:51:10.282Z,17.47
2018-12-31T02:53:37.000Z,17.47
2018-12-31T02:56:03.633Z,17.48
2018-12-31T02:58:31.713Z,17.47
2018-12-31T03:00:57.040Z,17.48
2018-12-31T03:03:23.687Z,17.51
2018-12-31T03:05:50.391Z,17.54
2018-12-31T03:08:17.060Z,17.59
2018-12-31T03:10:43.722Z,17.51
2018-12-31T03:13:10.452Z,17.53
2018-12-31T03:15:38.762Z,17.49
2018-12-31T03:18:03.755Z,17.49
2018-12-31T03:20:30.420Z,17.45
2018-12-31T03:22:57.121Z,17.41
2018-12-31T03:25:23.771Z,17.40
2018-12-31T03:27:50.424Z,17.42
2018-12-31T03:30:17.094Z,17.44
2018-12-31T03:32:43.767Z,17.46
2018-12-31T03:35:10.461Z,17.47
2018-12-31T03:37:37.119Z,17.49
2018-12-31T03:40:03.835Z,17.47
2018-12-31T03:42:30.582Z,17.46
2018-12-31T03:44:57.245Z,17.48
2018-12-31T03:47:23.903Z,17.47
2018-12-31T03:49:50.557Z,17.45
2018-12-31T03:52:17.216Z,17.48
2018-12-31T03:54:43.879Z,17.45
2018-12-31T03:57:10.586Z,17.48
2018-12-31T03:59:37.232Z,17.46
2018-12-31T04:02:04.035Z,17.48
2018-12-31T04:04:30.773Z,17.47
2018-12-31T04:06:57.421Z,17.46
2018-12-31T04:09:24.079Z,17.49
2018-12-31T04:11:50.751Z,17.53
2018-12-31T04:14:17.459Z,17.58
2018-12-31T04:16:44.109Z,17.56
2018-12-31T04:19:10.767Z,17.52
2018-12-31T04:21:37.445Z,17.51
2018-12-31T04:24:04.102Z,17.44
2018-12-31T04:26:30.802Z,17.42
2018-12-31T04:28:57.526Z,17.42
2018-12-31T04:31:24.153Z,17.41
2018-12-31T04:33:50.817Z,17.37
2018-12-31T04:36:17.535Z,17.37
2018-12-31T04:38:44.187Z,17.34
2018-12-31T04:41:10.837Z,17.34
2018-12-31T04:43:37.515Z,17.40
2018-12-31T04:46:04.187Z,17.42
2018-12-31T04:48:30.866Z,17.43
2018-12-31T04:50:57.512Z,17.44
2018-12-31T04:53:24.215Z,17.50
2018-12-31T04:55:50.891Z,17.50
2018-12-31T04:58:22.999Z,17.51
2018-12-31T05:00:44.211Z,17.54
2018-12-31T05:03:10.927Z,17.52
2018-12-31T05:05:37.580Z,17.53
2018-12-31T05:08:04.353Z,17.61
2018-12-31T05:10:31.020Z,17.57
2018-12-31T05:12:57.673Z,17.59
2018-12-31T05:15:24.340Z,17.60
2018-12-31T05:17:51.022Z,17.58
2018-12-31T05:20:17.717Z,17.61
2018-12-31T05:22:44.429Z,17.62
2018-12-31T05:25:11.087Z,17.64
2018-12-31T05:27:37.740Z,17.61
2018-12-31T05:30:04.431Z,17.62
2018-12-31T05:32:31.130Z,17.59
2018-12-31T05:34:57.800Z,17.65
2018-12-31T05:37:24.502Z,17.48
2018-12-31T05:39:51.162Z,17.75
2018-12-31T05:42:17.861Z,18.02
2018-12-31T05:44:44.510Z,18.14
2018-12-31T05:47:11.192Z,17.97
2018-12-31T05:49:37.904Z,17.85
2018-12-31T05:52:04.593Z,17.78
2018-12-31T05:54:31.294Z,17.73
2018-12-31T05:56:57.999Z,17.71
2018-12-31T05:59:24.654Z,17.70
2018-12-31T06:01:51.308Z,17.70
2018-12-31T06:04:17.977Z,17.66
2018-12-31T06:06:44.679Z,17.63
2018-12-31T06:09:11.476Z,17.64
2018-12-31T06:11:38.144Z,17.64
2018-12-31T06:14:04.853Z,17.63
2018-12-31T06:16:31.523Z,17.63
2018-12-31T06:18:58.188Z,17.63
2018-12-31T06:21:24.841Z,17.64
2018-12-31T06:23:51.549Z,17.65
2018-12-31T06:26:18.224Z,17.65
2018-12-31T06:28:44.887Z,17.66
2018-12-31T06:31:11.553Z,17.72
2018-12-31T06:33:38.331Z,17.90
2018-12-31T06:36:04.985Z,17.89
2018-12-31T06:38:31.720Z,17.82
2018-12-31T06:40:58.490Z,17.90
2018-12-31T06:43:25.143Z,17.79
2018-12-31T06:45:51.855Z,17.77
2018-12-31T06:48:18.504Z,17.79
2018-12-31T06:50:45.243Z,17.74
2018-12-31T06:53:11.947Z,17.75
2018-12-31T06:55:38.607Z,17.77
2018-12-31T06:58:05.321Z,17.78
2018-12-31T07:00:32.049Z,17.81
2018-12-31T07:02:58.668Z,17.82
2018-12-31T07:05:25.400Z,17.85
2018-12-31T07:07:52.080Z,17.82
2018-12-31T07:10:18.735Z,17.84
2018-12-31T07:12:45.392Z,17.85
2018-12-31T07:15:12.041Z,17.87
2018-12-31T07:17:38.867Z,17.88
2018-12-31T07:20:05.533Z,17.90
2018-12-31T07:22:32.237Z,17.96
2018-12-31T07:24:58.954Z,18.08
2018-12-31T07:27:25.615Z,18.27
2018-12-31T07:29:52.257Z,18.17
2018-12-31T07:32:18.935Z,18.23
2018-12-31T07:34:45.650Z,18.14
2018-12-31T07:37:12.350Z,18.29
2018-12-31T07:39:39.013Z,18.20
2018-12-31T07:42:05.723Z,18.15
2018-12-31T07:44:32.377Z,18.23
2018-12-31T07:46:59.088Z,18.20
2018-12-31T07:49:25.749Z,18.21
2018-12-31T07:51:52.392Z,18.30
2018-12-31T07:54:19.085Z,18.22
2018-12-31T07:56:45.744Z,18.28
2018-12-31T07:59:12.463Z,18.24
2018-12-31T08:01:39.136Z,18.33
2018-12-31T08:04:05.791Z,18.30
2018-12-31T08:06:32.567Z,18.25
2018-12-31T08:08:59.225Z,18.38
2018-12-31T08:11:25.946Z,18.34
2018-12-31T08:13:52.696Z,18.33
2018-12-31T08:16:19.411Z,18.40
2018-12-31T08:18:46.062Z,18.37
2018-12-31T08:21:12.812Z,18.39
2018-12-31T08:23:39.503Z,18.32
2018-12-31T08:26:06.224Z,18.37
2018-12-31T08:28:32.899Z,18.36
2018-12-31T08:30:59.611Z,18.44
2018-12-31T08:33:26.311Z,18.37
2018-12-31T08:35:52.959Z,18.46
2018-12-31T08:38:19.670Z,18.53
2018-12-31T08:40:46.384Z,18.62
2018-12-31T08:43:13.089Z,18.55
2018-12-31T08:45:39.740Z,18.55
2018-12-31T08:48:06.444Z,18.53
2018-12-31T08:50:33.090Z,18.48
2018-12-31T08:52:59.746Z,18.48
2018-12-31T08:55:26.393Z,18.42
2018-12-31T08:57:53.049Z,18.44
2018-12-31T09:00:19.720Z,18.43
2018-12-31T09:02:46.371Z,18.40
2018-12-31T09:05:13.121Z,18.40
2018-12-31T09:07:39.709Z,18.38
2018-12-31T09:10:08.414Z,18.37
2018-12-31T09:12:33.030Z,18.39
2018-12-31T09:14:59.682Z,18.39
2018-12-31T09:17:26.356Z,18.38
2018-12-31T09:19:53.021Z,18.40
2018-12-31T09:22:19.674Z,18.42
2018-12-31T09:24:46.353Z,18.58
2018-12-31T09:27:13.033Z,18.45
2018-12-31T09:29:39.711Z,18.49
2018-12-31T09:32:06.367Z,18.53
2018-12-31T09:34:33.033Z,18.53
2018-12-31T09:36:59.696Z,18.55
2018-12-31T09:39:26.344Z,18.54
2018-12-31T09:41:53.453Z,18.54
2018-12-31T09:44:19.661Z,18.55
2018-12-31T09:46:46.336Z,18.59
2018-12-31T09:49:12.988Z,18.56
2018-12-31T09:51:39.672Z,18.54
2018-12-31T09:54:06.337Z,18.54
2018-12-31T09:56:32.989Z,18.55
2018-12-31T09:58:59.654Z,18.53
2018-12-31T10:01:26.318Z,18.59
2018-12-31T10:03:52.978Z,18.60
2018-12-31T10:06:19.644Z,18.62
2018-12-31T10:08:49.302Z,18.61
2018-12-31T10:11:13.021Z,18.61
2018-12-31T10:13:39.688Z,18.61
2018-12-31T10:16:06.356Z,18.62
2018-12-31T10:18:33.112Z,18.67
2018-12-31T10:20:59.764Z,18.90
2018-12-31T10:23:26.444Z,19.06
2018-12-31T10:25:53.106Z,18.92
2018-12-31T10:28:19.776Z,18.87
2018-12-31T10:30:46.435Z,18.87
2018-12-31T10:33:13.074Z,18.87
2018-12-31T10:35:39.754Z,18.86
2018-12-31T10:38:06.428Z,18.85
2018-12-31T10:40:33.083Z,18.87
2018-12-31T10:42:59.762Z,18.80
2018-12-31T10:45:26.430Z,18.88
2018-12-31T10:47:53.092Z,18.82
2018-12-31T10:50:19.784Z,18.86
2018-12-31T10:52:46.483Z,18.84
2018-12-31T10:55:13.108Z,18.85
2018-12-31T10:57:39.772Z,18.79
2018-12-31T11:00:06.433Z,18.82
2018-12-31T11:02:33.103Z,18.84
2018-12-31T11:04:59.793Z,18.82
2018-12-31T11:07:26.451Z,18.85
2018-12-31T11:09:53.112Z,18.83
2018-12-31T11:12:19.780Z,18.92
2018-12-31T11:14:46.439Z,19.11
2018-12-31T11:17:13.079Z,19.10
2018-12-31T11:19:39.752Z,19.05
2018-12-31T11:22:06.410Z,18.97
2018-12-31T11:24:33.072Z,18.98
2018-12-31T11:26:59.720Z,18.91
2018-12-31T11:29:26.400Z,18.86
2018-12-31T11:31:53.064Z,18.79
2018-12-31T11:34:19.730Z,18.77
2018-12-31T11:36:46.406Z,18.79
2018-12-31T11:39:13.140Z,18.82
2018-12-31T11:41:39.783Z,18.84
2018-12-31T11:44:06.448Z,18.89
2018-12-31T11:46:33.097Z,18.92
2018-12-31T11:48:59.768Z,18.93
2018-12-31T11:51:26.430Z,18.97
2018-12-31T11:53:53.103Z,18.95
2018-12-31T11:56:19.770Z,18.95
2018-12-31T11:58:46.426Z,18.96
2018-12-31T12:01:13.105Z,18.99
2018-12-31T12:03:39.856Z,19.00
2018-12-31T12:06:06.525Z,19.00
2018-12-31T12:08:33.174Z,19.00
2018-12-31T12:10:59.857Z,19.01
2018-12-31T12:13:26.526Z,18.99
2018-12-31T12:15:53.196Z,19.04
2018-12-31T12:18:19.849Z,19.00
2018-12-31T12:20:46.521Z,19.02
2018-12-31T12:23:13.192Z,19.04
2018-12-31T12:25:39.841Z,19.07
2018-12-31T12:28:06.527Z,19.06
2018-12-31T12:30:33.227Z,19.06
2018-12-31T12:32:59.885Z,19.06
2018-12-31T12:35:26.576Z,19.02
2018-12-31T12:37:53.225Z,19.06
2018-12-31T12:40:19.879Z,19.07
2018-12-31T12:42:46.556Z,19.09
2018-12-31T12:45:13.228Z,19.08
2018-12-31T12:47:39.944Z,19.07
2018-12-31T12:50:06.651Z,19.09
2018-12-31T12:52:33.319Z,19.00
2018-12-31T12:55:00.092Z,19.06
2018-12-31T12:57:26.723Z,19.09
2018-12-31T12:59:53.427Z,19.10
2018-12-31T13:02:20.084Z,19.08
2018-12-31T13:04:46.752Z,19.08
2018-12-31T13:07:13.428Z,19.08
2018-12-31T13:09:40.093Z,19.06
2018-12-31T13:12:06.833Z,19.06
2018-12-31T13:14:33.499Z,19.05
2018-12-31T13:17:00.207Z,19.06
2018-12-31T13:19:26.855Z,19.05
2018-12-31T13:21:53.507Z,18.93
2018-12-31T13:24:20.170Z,19.08
2018-12-31T13:26:46.927Z,19.13
2018-12-31T13:29:13.608Z,19.30
2018-12-31T13:31:40.264Z,19.18
2018-12-31T13:34:06.919Z,19.09
2018-12-31T13:36:34.918Z,19.02
2018-12-31T13:39:00.277Z,19.10
2018-12-31T13:41:26.931Z,19.14
2018-12-31T13:43:53.582Z,19.21
2018-12-31T13:46:20.248Z,19.19
2018-12-31T13:48:46.922Z,19.23
2018-12-31T13:51:13.586Z,19.17
2018-12-31T13:53:40.315Z,19.39
2018-12-31T13:56:07.067Z,19.59
2018-12-31T13:58:33.727Z,19.66
2018-12-31T14:01:00.452Z,19.50
2018-12-31T14:03:27.165Z,19.36
2018-12-31T14:05:53.892Z,19.25
2018-12-31T14:08:20.543Z,19.14
2018-12-31T14:10:47.207Z,19.08
2018-12-31T14:13:13.863Z,19.05
2018-12-31T14:15:40.514Z,19.02
2018-12-31T14:18:07.192Z,18.99
2018-12-31T14:20:33.851Z,18.97
2018-12-31T14:23:00.531Z,18.95
2018-12-31T14:25:27.203Z,18.93
2018-12-31T14:27:53.894Z,18.97
2018-12-31T14:30:20.593Z,18.99
2018-12-31T14:32:47.277Z,19.04
2018-12-31T14:35:13.990Z,19.04
2018-12-31T14:37:40.654Z,19.08
2018-12-31T14:40:07.421Z,19.09
2018-12-31T14:42:34.065Z,19.11
2018-12-31T14:45:00.736Z,19.11
2018-12-31T14:47:27.404Z,19.11
2018-12-31T14:49:54.080Z,19.11
2018-12-31T14:52:20.798Z,19.09
2018-12-31T14:54:47.467Z,19.09
2018-12-31T14:57:14.188Z,19.08
2018-12-31T14:59:40.851Z,19.08
2018-12-31T15:02:07.509Z,19.08
2018-12-31T15:04:34.188Z,19.10
2018-12-31T15:07:00.835Z,19.08
2018-12-31T15:09:27.505Z,19.07
2018-12-31T15:11:54.250Z,19.09
2018-12-31T15:14:20.913Z,19.03
2018-12-31T15:16:47.569Z,19.06
2018-12-31T15:19:14.307Z,19.07
2018-12-31T15:21:40.953Z,19.07
2018-12-31T15:24:07.609Z,19.07
2018-12-31T15:26:34.270Z,19.06
2018-12-31T15:29:00.937Z,19.06
2018-12-31T15:31:27.628Z,19.10
2018-12-31T15:33:54.286Z,19.11
2018-12-31T15:36:20.943Z,19.07
2018-12-31T15:38:47.610Z,19.08
2018-12-31T15:41:14.281Z,19.08
2018-12-31T15:43:40.948Z,19.07
2018-12-31T15:46:07.609Z,19.03
2018-12-31T15:48:34.264Z,19.07
2018-12-31T15:51:00.931Z,19.05
2018-12-31T15:53:27.655Z,19.14
2018-12-31T15:55:54.312Z,19.05
2018-12-31T15:58:21.018Z,19.08
2018-12-31T16:00:47.695Z,19.11
2018-12-31T16:03:14.363Z,19.13
2018-12-31T16:05:41.069Z,19.13
2018-12-31T16:08:07.772Z,19.11
2018-12-31T16:10:34.422Z,19.13
2018-12-31T16:13:01.081Z,19.12
2018-12-31T16:15:27.795Z,19.11
2018-12-31T16:17:54.460Z,19.12
2018-12-31T16:20:21.120Z,19.13
2018-12-31T16:22:47.841Z,19.12
2018-12-31T16:25:14.553Z,19.12
2018-12-31T16:27:41.219Z,19.12
2018-12-31T16:30:07.877Z,19.14
2018-12-31T16:32:34.551Z,19.17
2018-12-31T16:35:01.209Z,19.16
2018-12-31T16:37:27.945Z,19.16
2018-12-31T16:39:54.611Z,19.14
2018-12-31T16:42:21.256Z,19.14
2018-12-31T16:44:48.088Z,19.15
2018-12-31T16:47:14.752Z,19.16
2018-12-31T16:49:41.772Z,19.17
2018-12-31T16:52:08.435Z,19.18
2018-12-31T16:54:35.084Z,19.18
2018-12-31T16:57:01.807Z,19.17
2018-12-31T16:59:28.455Z,19.18
2018-12-31T17:01:55.126Z,19.20
2018-12-31T17:04:21.799Z,19.20
2018-12-31T17:06:48.448Z,19.19
2018-12-31T17:09:15.111Z,19.19
2018-12-31T17:11:41.762Z,19.18
2018-12-31T17:14:08.429Z,19.18
2018-12-31T17:16:35.084Z,19.21
2018-12-31T17:19:01.808Z,19.18
2018-12-31T17:21:28.461Z,19.19
2018-12-31T17:23:55.171Z,19.17
2018-12-31T17:26:21.838Z,19.21
2018-12-31T17:28:48.514Z,19.22
2018-12-31T17:31:15.171Z,19.24
2018-12-31T17:33:41.827Z,19.24
2018-12-31T17:36:08.476Z,19.26
2018-12-31T17:38:35.138Z,19.25
2018-12-31T17:41:01.800Z,19.27
2018-12-31T17:43:28.444Z,19.27
2018-12-31T17:45:55.112Z,19.24
2018-12-31T17:48:21.837Z,19.31
2018-12-31T17:50:48.518Z,19.27
2018-12-31T17:53:15.165Z,19.30
2018-12-31T17:55:41.873Z,19.29
2018-12-31T17:58:08.528Z,19.27
2018-12-31T18:00:35.248Z,19.27
2018-12-31T18:03:01.899Z,19.29
2018-12-31T18:05:28.564Z,19.25
2018-12-31T18:07:55.214Z,19.28
2018-12-31T18:10:21.885Z,19.25
2018-12-31T18:12:48.548Z,19.26
2018-12-31T18:15:15.215Z,19.24
2018-12-31T18:17:41.877Z,19.27
2018-12-31T18:20:08.593Z,19.25
2018-12-31T18:22:35.252Z,19.25
2018-12-31T18:25:01.901Z,19.25
2018-12-31T18:27:28.584Z,19.25
2018-12-31T18:29:55.224Z,19.26
2018-12-31T18:32:21.926Z,19.24
2018-12-31T18:34:48.587Z,19.29
2018-12-31T18:37:15.304Z,19.27
2018-12-31T18:39:41.963Z,19.29
2018-12-31T18:42:08.631Z,19.27
2018-12-31T18:44:35.276Z,19.29
2018-12-31T18:47:01.976Z,19.29
2018-12-31T18:49:28.621Z,19.29
2018-12-31T18:51:55.385Z,19.34
2018-12-31T18:54:22.043Z,19.33
2018-12-31T18:56:48.733Z,19.34
2018-12-31T18:59:15.496Z,19.35
2018-12-31T19:01:42.212Z,19.36
2018-12-31T19:04:08.864Z,19.34
2018-12-31T19:06:35.529Z,19.36
2018-12-31T19:09:02.258Z,19.36
2018-12-31T19:11:29.098Z,19.39
2018-12-31T19:13:55.829Z,19.40
2018-12-31T19:16:22.485Z,19.40
2018-12-31T19:18:49.196Z,19.41
2018-12-31T19:21:15.935Z,19.45
2018-12-31T19:23:42.597Z,19.41
2018-12-31T19:26:09.265Z,19.42
2018-12-31T19:28:35.923Z,19.42
2018-12-31T19:31:02.590Z,19.44
2018-12-31T19:33:29.248Z,19.40
2018-12-31T19:35:55.951Z,19.42
2018-12-31T19:38:22.608Z,19.46
2018-12-31T19:40:49.416Z,19.44
2018-12-31T19:43:16.070Z,19.45
2018-12-31T19:45:42.745Z,19.43
2018-12-31T19:48:09.453Z,19.44
2018-12-31T19:50:36.120Z,19.45
2018-12-31T19:53:02.782Z,19.46
2018-12-31T19:55:29.434Z,19.49
2018-12-31T19:57:56.163Z,19.48
2018-12-31T20:00:22.883Z,19.47
2018-12-31T20:02:49.538Z,19.50
2018-12-31T20:05:16.191Z,19.51
2018-12-31T20:07:42.900Z,19.51
2018-12-31T20:10:09.631Z,19.50
2018-12-31T20:12:36.292Z,19.53
2018-12-31T20:15:02.948Z,19.51
2018-12-31T20:17:32.499Z,19.52
2018-12-31T20:19:59.154Z,19.49
2018-12-31T20:22:25.813Z,19.42
2018-12-31T20:24:52.477Z,19.41
2018-12-31T20:27:19.152Z,19.37
2018-12-31T20:29:45.811Z,19.37
2018-12-31T20:32:12.686Z,19.32
2018-12-31T20:34:39.332Z,19.34
2018-12-31T20:37:05.997Z,19.32
2018-12-31T20:39:32.698Z,19.33
2018-12-31T20:41:59.347Z,19.29
2018-12-31T20:44:26.021Z,19.31
2018-12-31T20:46:52.753Z,19.28
2018-12-31T20:49:19.412Z,19.29
2018-12-31T20:51:46.137Z,19.27
2018-12-31T20:54:12.788Z,19.26
2018-12-31T20:56:39.442Z,19.23
2018-12-31T20:59:06.106Z,19.28
2018-12-31T21:01:32.831Z,19.24
2018-12-31T21:03:59.488Z,19.28
2018-12-31T21:06:26.284Z,19.22
2018-12-31T21:08:52.927Z,19.22
2018-12-31T21:11:19.599Z,19.20
2018-12-31T21:13:46.312Z,19.23
2018-12-31T21:16:12.963Z,19.18
2018-12-31T21:18:39.630Z,19.18
2018-12-31T21:21:06.285Z,19.18
2018-12-31T21:23:33.004Z,19.16
2018-12-31T21:25:59.746Z,19.17
2018-12-31T21:28:29.815Z,19.16
2018-12-31T21:30:56.482Z,19.14
2018-12-31T21:33:23.128Z,19.15
2018-12-31T21:35:49.831Z,19.15
2018-12-31T21:38:16.483Z,19.12
2018-12-31T21:40:43.285Z,19.11
2018-12-31T21:43:09.936Z,19.11
2018-12-31T21:45:36.662Z,19.09
2018-12-31T21:48:03.429Z,19.11
2018-12-31T21:50:30.085Z,19.07
2018-12-31T21:52:56.806Z,19.06
2018-12-31T21:55:23.453Z,18.63
2018-12-31T21:57:50.112Z,19.40
2018-12-31T22:00:16.832Z,19.54
2018-12-31T22:02:43.485Z,19.60
2018-12-31T22:05:10.142Z,19.39
2018-12-31T22:07:36.808Z,19.36
2018-12-31T22:10:03.462Z,19.29
2018-12-31T22:12:30.176Z,19.23
2018-12-31T22:14:56.827Z,19.18
2018-12-31T22:17:23.536Z,19.18
2018-12-31T22:19:50.251Z,19.17
2018-12-31T22:22:16.960Z,19.15
2018-12-31T22:24:43.665Z,19.15
2018-12-31T22:27:10.319Z,19.12
2018-12-31T22:29:37.044Z,19.08
2018-12-31T22:32:03.700Z,19.08
2018-12-31T22:34:30.365Z,19.12
2018-12-31T22:36:57.079Z,19.14
2018-12-31T22:39:23.745Z,19.15
2018-12-31T22:41:50.450Z,19.17
2018-12-31T22:44:17.107Z,19.16
2018-12-31T22:46:43.754Z,19.18
2018-12-31T22:49:10.436Z,19.20
2018-12-31T22:51:37.092Z,19.16
2018-12-31T22:54:03.816Z,19.17
2018-12-31T22:56:30.523Z,19.18
2018-12-31T22:58:57.173Z,19.26
2018-12-31T23:01:23.819Z,19.36
2018-12-31T23:03:50.496Z,19.44
2018-12-31T23:06:17.197Z,19.24
2018-12-31T23:08:43.998Z,19.25
2018-12-31T23:11:10.639Z,19.25
2018-12-31T23:13:37.446Z,19.17
2018-12-31T23:16:04.111Z,19.14
2018-12-31T23:18:30.830Z,19.13
2018-12-31T23:20:57.532Z,19.09
2018-12-31T23:23:24.267Z,19.05
2018-12-31T23:25:50.919Z,19.07
2018-12-31T23:28:17.580Z,19.05
2018-12-31T23:30:44.244Z,19.02
2018-12-31T23:33:10.888Z,19.04
2018-12-31T23:35:37.602Z,18.99
2018-12-31T23:38:06.310Z,19.00
2018-12-31T23:40:30.953Z,19.00
2018-12-31T23:42:57.675Z,18.93
2018-12-31T23:45:24.378Z,18.97
2018-12-31T23:47:51.029Z,19.01
2018-12-31T23:50:17.735Z,19.08
2018-12-31T23:52:44.390Z,19.15
2018-12-31T23:55:11.097Z,19.06
2018-12-31T23:57:37.743Z,19.06
